Gary Chicago International Airport
KGYY : now visible

Airfield :











YOU CAN JOIN US ON...

 
LOGIN :

Register | Disclaimer

   EN    FR    IT 

 









Legend :    VFR   Marginal VFR   IFR   Intensive IFR   Very Intensive IFR
Visi :
Ceiling :
>= 8 km
>= 3000ft
5 to 8 km
1000 to 3000 ft
1500m to 5 km
500 to 1000 ft
800 to 1500m
200 to 500 ft
< 800m
< 200 ft
Symbols :   Thunderstorms  Fog  Heavy snow  Heavy precipitations  Wind > 20 kt






- Airport Elevation : 591 ft
- IATA code : GYY


KGYY - Gary Chicago International

CURRENT METAR :
  • 250815Z AUTO 21004KT 4SM -SN OVC004 02/02 A2980 RMK AO2 T00150015

EXPIRED METARs :
  • 250755Z AUTO 21005KT 4SM -SN OVC004 02/02 A2979 RMK AO2 T00150015
  • 250735Z AUTO 20004KT 3SM -SN OVC004 02/02 A2979 RMK AO2 T00150015
  • 250715Z AUTO 20003KT 3SM -RA OVC002 02/02 A2979 RMK AO2 T00170017
  • 250655Z AUTO 21003KT 3SM RA OVC002 02/02 A2979 RMK AO2 T00190019
  • 250635Z AUTO 21004KT 3SM -DZ OVC002 02/02 A2979 RMK AO2 T00200020
  • 250615Z AUTO 20004KT 2 1/2SM -RA OVC002 02/02 A2980 RMK AO2 T00210021
  • 250555Z AUTO 22003KT 1 3/4SM BR OVC002 02/02 A2980 RMK AO2 60002 T00210021 10041 20021 400460021
  • 250535Z AUTO 21004KT 1 3/4SM BR OVC002 02/02 A2980 RMK AO2 T00220022

TAF KGYY
Valid from the 25 at 06:00 until the 26 at 06:00 UTC


250532Z 2506/2606 22007KT 5SM -DZ BR OVC005
FM250800 24006KT 5SM -SN BR OVC005
TEMPO 2509/2512 1 1/2SM -SN BR
FM251600 27012KT 1 1/2SM -SN OVC006
FM252300 28012KT 5SM -SNDZ OVC007



MET'MAP, your aeronautical weather chart ! - Copyright ORBIFLY December 2007 - Disclaimer

ORBIFLY MET'MAP TEAM :

Programming & Development : Alexandra Zaïnal
Concept & original design : Baudouin d'Aumeries
Assistance for programming : Marc-Olivier Méhu
Technical & hardware support : Manuel Goepfert

Contact : metmap@orbifly.com




SOURCES & CREDITS :

   NOAA       Earth
Advisory